Albany, Minnesota
Current Conditions -  °F | °C
As of 7:53 AM on Saturday 25 Oct 2014 (Local Time) from KD39 Reporting Station
Clear Clear  
Wind Chill: 36°   Ceiling: Unl
Heat Index: 39°   Visibility: 10mi
Dew Point: 33°   Wind: 5mph
Humidity: 76%   Direction: 290°WNW
Pressure: 30.05"   Gusts: NA
Location:  45.63°N, 94.57°W
Report Text: KD39 251253Z AUTO 29004KT 10SM CLR 04/00 A3005 RMK AO2 T00410003
Loading
Personal Weather Stations






























Interactive Weather Map New forecast layout! Learn more

10-Day Weather Forecast

Advertisements
Track Severe Weather on mobile